Time;durP1;ratioP1;P1;durP2;ratioP2;P2;SDS_P1;SDS_P2;PMS_P1;PMS_P2;Temp;Humidity;BMP_temperature;BMP_pressure;BME280_temperature;BME280_humidity;BME280_pressure;Samples;Min_cycle;Max_cycle;Signal;HPM_P1;HPM_P2
2021/03/13 00:00:06;;;;;;;3.60;2.47;;;;;;;;;;5088032;28;20198;-69
2021/03/13 00:02:33;;;;;;;3.50;2.17;;;;;;;;;;5099398;28;20293;-70
2021/03/13 00:05:01;;;;;;;6.00;2.00;;;;;;;;;;5078749;28;20265;-70
2021/03/13 00:07:28;;;;;;;7.80;1.90;;;;;;;;;;5084531;28;20281;-70
2021/03/13 00:09:55;;;;;;;4.57;2.13;;;;;;;;;;5097195;28;20202;-70
2021/03/13 00:12:22;;;;;;;7.67;2.00;;;;;;;;;;5078314;28;20206;-70
2021/03/13 00:14:49;;;;;;;2.30;1.80;;;;;;;;;;5078164;28;20258;-69
2021/03/13 00:17:17;;;;;;;4.53;2.07;;;;;;;;;;5077855;28;20597;-70
2021/03/13 00:19:44;;;;;;;2.10;1.90;;;;;;;;;;5086635;28;20729;-69
2021/03/13 00:22:11;;;;;;;4.70;2.27;;;;;;;;;;5098095;28;20202;-70
2021/03/13 00:24:38;;;;;;;6.27;2.27;;;;;;;;;;5098114;28;20316;-69
2021/03/13 00:27:06;;;;;;;3.00;1.97;;;;;;;;;;5098851;28;20232;-70
2021/03/13 00:29:33;;;;;;;5.43;2.20;;;;;;;;;;5097326;28;20273;-70
2021/03/13 00:32:00;;;;;;;5.60;2.03;;;;;;;;;;5077760;28;20269;-70
2021/03/13 00:34:28;;;;;;;4.43;2.23;;;;;;;;;;5081474;28;20253;-70
2021/03/13 00:36:55;;;;;;;5.23;2.33;;;;;;;;;;5080558;28;20240;-70
2021/03/13 00:39:40;;;;;;;4.27;2.20;;;;;;;;;;5086011;28;20280;-69
2021/03/13 00:42:08;;;;;;;5.87;2.30;;;;;;;;;;5098359;28;20330;-70
2021/03/13 00:44:35;;;;;;;4.03;2.53;;;;;;;;;;5089502;28;20261;-69
2021/03/13 00:47:02;;;;;;;4.10;2.27;;;;;;;;;;5097264;28;20201;-70
2021/03/13 00:49:31;;;;;;;4.57;2.40;;;;;;;;;;5097314;28;20194;-70
2021/03/13 00:51:58;;;;;;;4.83;2.03;;;;;;;;;;5084205;28;20206;-68
2021/03/13 00:54:24;;;;;;;6.80;2.10;;;;;;;;;;5077403;28;20237;-70
2021/03/13 00:56:51;;;;;;;4.37;2.30;;;;;;;;;;5093721;28;20311;-70
2021/03/13 00:59:18;;;;;;;3.03;2.00;;;;;;;;;;5092582;28;20229;-70
2021/03/13 01:01:45;;;;;;;5.20;2.47;;;;;;;;;;5077640;28;20281;-70
2021/03/13 01:04:13;;;;;;;4.90;2.30;;;;;;;;;;5081410;28;20236;-70
2021/03/13 01:06:41;;;;;;;3.33;2.03;;;;;;;;;;5077628;28;20226;-70
2021/03/13 01:09:08;;;;;;;3.47;2.20;;;;;;;;;;5077836;28;20244;-70
2021/03/13 01:11:35;;;;;;;3.53;2.17;;;;;;;;;;5090782;28;20289;-70
2021/03/13 01:14:02;;;;;;;2.50;1.87;;;;;;;;;;5077725;28;20293;-70
2021/03/13 01:16:29;;;;;;;4.17;2.40;;;;;;;;;;5077623;28;20257;-70
2021/03/13 01:18:57;;;;;;;3.07;1.93;;;;;;;;;;5095266;28;20209;-70
2021/03/13 01:21:24;;;;;;;5.60;2.33;;;;;;;;;;5079466;28;20221;-70
2021/03/13 01:23:52;;;;;;;4.67;2.17;;;;;;;;;;5077812;28;20704;-70
2021/03/13 01:26:19;;;;;;;5.20;2.20;;;;;;;;;;5077356;28;20707;-70
2021/03/13 01:28:46;;;;;;;5.53;2.57;;;;;;;;;;5077756;28;20241;-70
2021/03/13 01:31:13;;;;;;;2.97;2.00;;;;;;;;;;5089157;28;20225;-71
2021/03/13 01:33:41;;;;;;;2.80;1.90;;;;;;;;;;5096869;28;20236;-71
2021/03/13 01:36:08;;;;;;;2.97;1.90;;;;;;;;;;5087275;28;20252;-70
2021/03/13 01:38:35;;;;;;;3.50;2.33;;;;;;;;;;5091869;28;20367;-69
2021/03/13 01:41:03;;;;;;;6.90;2.40;;;;;;;;;;5097740;28;20633;-69
2021/03/13 01:43:30;;;;;;;4.70;2.23;;;;;;;;;;5081551;28;20293;-69
2021/03/13 01:45:57;;;;;;;4.60;2.33;;;;;;;;;;5084260;28;20237;-70
2021/03/13 01:48:30;;;;;;;3.67;2.00;;;;;;;;;;5080977;28;20209;-69
2021/03/13 01:50:57;;;;;;;4.03;1.70;;;;;;;;;;5081368;28;20233;-69
2021/03/13 01:53:24;;;;;;;3.50;1.70;;;;;;;;;;5097588;28;20232;-70
2021/03/13 01:55:52;;;;;;;2.70;1.80;;;;;;;;;;5096808;28;20696;-68
2021/03/13 01:58:19;;;;;;;2.60;1.50;;;;;;;;;;5097677;28;20316;-69
2021/03/13 02:00:50;;;;;;;3.20;1.73;;;;;;;;;;5084668;28;20213;-68
2021/03/13 02:03:17;;;;;;;2.23;1.40;;;;;;;;;;5088185;28;20203;-69
2021/03/13 02:05:44;;;;;;;4.70;1.63;;;;;;;;;;5081294;28;20254;-70
2021/03/13 02:08:17;;;;;;;3.37;1.53;;;;;;;;;;5084697;28;20281;-70
2021/03/13 02:10:50;;;;;;;3.00;1.80;;;;;;;;;;5100489;28;20255;-69
2021/03/13 02:13:21;;;;;;;4.87;1.87;;;;;;;;;;5100374;28;20240;-69
2021/03/13 02:15:56;;;;;;;4.03;1.33;;;;;;;;;;5101360;28;20233;-69
2021/03/13 02:18:26;;;;;;;5.10;1.67;;;;;;;;;;5089325;28;20217;-70
2021/03/13 02:21:04;;;;;;;2.77;1.53;;;;;;;;;;5081119;28;20666;-70
2021/03/13 02:23:35;;;;;;;4.70;1.40;;;;;;;;;;5100615;28;20267;-70
2021/03/13 02:26:15;;;;;;;3.10;1.90;;;;;;;;;;5081220;28;20230;-69
2021/03/13 02:28:46;;;;;;;3.97;1.70;;;;;;;;;;5081094;28;20273;-68
2021/03/13 02:31:16;;;;;;;2.60;1.20;;;;;;;;;;5080811;28;20198;-68
2021/03/13 02:33:44;;;;;;;3.67;1.57;;;;;;;;;;5079867;28;20303;-70
2021/03/13 02:36:12;;;;;;;2.60;1.70;;;;;;;;;;5094086;28;20300;-70
2021/03/13 02:38:42;;;;;;;2.80;1.40;;;;;;;;;;5100445;28;20577;-69
2021/03/13 02:41:11;;;;;;;4.97;2.03;;;;;;;;;;5099805;28;20197;-68
2021/03/13 02:43:39;;;;;;;2.07;1.23;;;;;;;;;;5083960;28;20198;-70
2021/03/13 02:46:07;;;;;;;2.17;1.43;;;;;;;;;;5088146;28;20633;-70
2021/03/13 02:48:36;;;;;;;2.43;1.20;;;;;;;;;;5098121;28;20202;-70
2021/03/13 02:51:04;;;;;;;5.23;1.00;;;;;;;;;;5083956;28;20232;-69
2021/03/13 02:53:31;;;;;;;4.70;1.10;;;;;;;;;;5080242;28;20249;-69
2021/03/13 02:55:59;;;;;;;1.07;0.70;;;;;;;;;;5090396;28;20276;-69
2021/03/13 02:58:27;;;;;;;2.90;1.20;;;;;;;;;;5099356;28;20276;-69
2021/03/13 03:00:54;;;;;;;2.30;1.10;;;;;;;;;;5090320;28;20289;-70
2021/03/13 03:03:23;;;;;;;1.90;1.30;;;;;;;;;;5086235;28;20254;-70
2021/03/13 03:05:53;;;;;;;2.23;1.50;;;;;;;;;;5099567;28;20225;-69
2021/03/13 03:08:21;;;;;;;2.17;1.10;;;;;;;;;;5088611;28;20236;-69
2021/03/13 03:10:48;;;;;;;1.33;1.00;;;;;;;;;;5099452;28;20244;-70
2021/03/13 03:13:16;;;;;;;4.33;0.93;;;;;;;;;;5085983;28;20238;-69
2021/03/13 03:15:43;;;;;;;4.80;1.20;;;;;;;;;;5080038;28;20226;-70
2021/03/13 03:18:13;;;;;;;1.97;0.90;;;;;;;;;;5082487;28;20257;-70
2021/03/13 03:20:41;;;;;;;3.10;0.97;;;;;;;;;;5099989;28;20210;-70
2021/03/13 03:23:09;;;;;;;3.13;1.23;;;;;;;;;;5094036;28;20538;-70
2021/03/13 03:25:36;;;;;;;4.07;1.27;;;;;;;;;;5078461;28;20305;-70
2021/03/13 03:28:04;;;;;;;4.07;1.50;;;;;;;;;;5079343;28;20198;-69
2021/03/13 03:30:32;;;;;;;2.07;1.00;;;;;;;;;;5084277;28;20230;-69
2021/03/13 03:32:59;;;;;;;5.77;1.43;;;;;;;;;;5099548;28;20728;-69
2021/03/13 03:35:27;;;;;;;3.43;1.43;;;;;;;;;;5092639;28;20230;-69
2021/03/13 03:37:55;;;;;;;4.80;1.67;;;;;;;;;;5078755;28;20636;-69
2021/03/13 03:40:24;;;;;;;2.17;1.60;;;;;;;;;;5093193;28;20315;-69
2021/03/13 03:42:55;;;;;;;2.13;1.70;;;;;;;;;;5099574;28;20242;-69
2021/03/13 03:45:24;;;;;;;2.77;1.87;;;;;;;;;;5085298;28;20269;-69
2021/03/13 03:47:52;;;;;;;3.33;1.60;;;;;;;;;;5079527;28;20210;-70
2021/03/13 03:50:21;;;;;;;4.43;1.67;;;;;;;;;;5079607;28;20210;-69
2021/03/13 03:52:50;;;;;;;2.97;1.33;;;;;;;;;;5079101;28;20230;-69
2021/03/13 03:55:17;;;;;;;5.57;1.80;;;;;;;;;;5085333;28;20218;-69
2021/03/13 03:57:45;;;;;;;2.23;1.50;;;;;;;;;;5094634;28;20308;-69
2021/03/13 04:00:13;;;;;;;2.50;1.70;;;;;;;;;;5084866;28;20206;-68
2021/03/13 04:02:53;;;;;;;4.37;1.53;;;;;;;;;;5081701;28;20206;-68
2021/03/13 04:05:20;;;;;;;3.87;1.70;;;;;;;;;;5084800;28;20233;-68
2021/03/13 04:07:48;;;;;;;2.53;1.60;;;;;;;;;;5085014;28;20217;-70
2021/03/13 04:10:15;;;;;;;4.57;1.50;;;;;;;;;;5098958;28;20696;-69
2021/03/13 04:12:43;;;;;;;4.37;1.67;;;;;;;;;;5089599;28;20229;-68
2021/03/13 04:15:12;;;;;;;4.43;1.70;;;;;;;;;;5078639;28;20254;-67
2021/03/13 04:17:39;;;;;;;3.13;1.60;;;;;;;;;;5086299;28;20221;-68
2021/03/13 04:20:07;;;;;;;2.43;1.83;;;;;;;;;;5082171;28;20236;-68
2021/03/13 04:22:35;;;;;;;3.63;1.83;;;;;;;;;;5084806;28;20643;-69
2021/03/13 04:25:04;;;;;;;3.10;1.43;;;;;;;;;;5090742;28;20261;-68
2021/03/13 04:27:31;;;;;;;2.17;1.63;;;;;;;;;;5090562;28;20256;-68
2021/03/13 04:29:58;;;;;;;3.47;1.40;;;;;;;;;;5098032;28;20285;-69
2021/03/13 04:32:26;;;;;;;3.90;1.37;;;;;;;;;;5078650;28;20202;-70
2021/03/13 04:34:54;;;;;;;5.60;2.03;;;;;;;;;;5084012;28;20232;-69
2021/03/13 04:37:22;;;;;;;3.77;1.77;;;;;;;;;;5097284;28;20658;-70
2021/03/13 04:39:50;;;;;;;1.93;1.30;;;;;;;;;;5085043;28;20271;-69
2021/03/13 04:42:18;;;;;;;3.37;1.70;;;;;;;;;;5078400;28;20217;-70
2021/03/13 04:44:45;;;;;;;1.67;1.20;;;;;;;;;;5089788;28;20229;-69
2021/03/13 04:47:12;;;;;;;2.67;1.60;;;;;;;;;;5092232;28;20234;-69
2021/03/13 04:49:40;;;;;;;1.13;1.07;;;;;;;;;;5078042;28;20252;-69
2021/03/13 04:52:08;;;;;;;4.43;1.30;;;;;;;;;;5083267;28;20285;-69
2021/03/13 04:54:35;;;;;;;5.97;2.13;;;;;;;;;;5087244;28;20709;-70
2021/03/13 04:57:02;;;;;;;3.43;1.43;;;;;;;;;;5098326;28;20232;-69
2021/03/13 04:59:30;;;;;;;2.83;1.50;;;;;;;;;;5084562;28;20236;-70
2021/03/13 05:01:58;;;;;;;3.33;1.30;;;;;;;;;;5076928;28;20229;-70
2021/03/13 05:04:25;;;;;;;2.17;1.00;;;;;;;;;;5080510;28;20272;-70
2021/03/13 05:06:53;;;;;;;2.57;1.30;;;;;;;;;;5077595;28;20225;-70
2021/03/13 05:09:20;;;;;;;2.70;1.03;;;;;;;;;;5077778;28;20210;-70
2021/03/13 05:11:47;;;;;;;2.10;1.10;;;;;;;;;;5077865;28;20226;-69
2021/03/13 05:14:14;;;;;;;2.40;1.00;;;;;;;;;;5098151;28;20237;-70
2021/03/13 05:16:41;;;;;;;1.53;1.13;;;;;;;;;;5096885;28;20236;-70
2021/03/13 05:19:08;;;;;;;5.50;1.00;;;;;;;;;;5077961;28;20567;-70
2021/03/13 05:21:35;;;;;;;4.43;1.20;;;;;;;;;;5077730;28;20740;-70
2021/03/13 05:24:04;;;;;;;1.33;1.20;;;;;;;;;;5081236;28;20202;-69
2021/03/13 05:26:31;;;;;;;2.33;1.30;;;;;;;;;;5094409;28;20201;-69
2021/03/13 05:28:58;;;;;;;3.43;1.53;;;;;;;;;;5097977;28;20240;-69
2021/03/13 05:31:25;;;;;;;2.40;1.50;;;;;;;;;;5096347;28;20201;-69
2021/03/13 05:33:59;;;;;;;1.90;1.60;;;;;;;;;;5098896;28;20204;-70
2021/03/13 05:36:26;;;;;;;2.50;1.20;;;;;;;;;;5100136;28;20235;-70
2021/03/13 05:38:53;;;;;;;5.43;1.70;;;;;;;;;;5100954;28;20716;-69
2021/03/13 05:41:21;;;;;;;3.60;1.60;;;;;;;;;;5081784;28;20216;-70
2021/03/13 05:43:49;;;;;;;1.53;1.20;;;;;;;;;;5081661;28;20723;-69
2021/03/13 05:46:18;;;;;;;4.17;1.70;;;;;;;;;;5083418;28;20296;-69
2021/03/13 05:48:45;;;;;;;2.30;1.70;;;;;;;;;;5081558;28;20281;-69
2021/03/13 05:51:13;;;;;;;6.00;1.80;;;;;;;;;;5081683;28;20259;-70
2021/03/13 05:53:41;;;;;;;2.10;1.40;;;;;;;;;;5092308;28;20252;-70
2021/03/13 05:56:08;;;;;;;3.87;1.60;;;;;;;;;;5080524;28;20778;-68
2021/03/13 05:58:38;;;;;;;2.50;1.10;;;;;;;;;;5081449;28;20273;-70
2021/03/13 06:01:05;;;;;;;2.47;1.70;;;;;;;;;;5081804;28;20198;-70
2021/03/13 06:03:33;;;;;;;1.30;1.20;;;;;;;;;;5081660;28;20285;-70
2021/03/13 06:06:01;;;;;;;3.50;1.60;;;;;;;;;;5082789;28;20766;-69
2021/03/13 06:08:29;;;;;;;2.80;1.80;;;;;;;;;;5088134;28;20194;-70
2021/03/13 06:10:56;;;;;;;3.73;1.60;;;;;;;;;;5101684;28;20255;-68
2021/03/13 06:13:24;;;;;;;3.53;1.67;;;;;;;;;;5086146;28;20205;-68
2021/03/13 06:15:55;;;;;;;1.80;1.47;;;;;;;;;;5080943;28;20230;-68
2021/03/13 06:18:23;;;;;;;3.20;1.50;;;;;;;;;;5094321;28;20221;-68
2021/03/13 06:20:49;;;;;;;1.83;1.20;;;;;;;;;;5101126;28;20288;-69
2021/03/13 06:23:16;;;;;;;2.87;1.20;;;;;;;;;;5098556;28;20198;-68
2021/03/13 06:25:44;;;;;;;5.40;1.40;;;;;;;;;;5087817;28;20312;-68
2021/03/13 06:28:12;;;;;;;3.20;1.60;;;;;;;;;;5093781;28;20658;-68
2021/03/13 06:30:40;;;;;;;4.00;1.60;;;;;;;;;;5097892;28;20205;-70
2021/03/13 06:33:20;;;;;;;4.73;1.87;;;;;;;;;;5099988;28;20319;-68
2021/03/13 06:35:47;;;;;;;4.17;1.40;;;;;;;;;;5090391;28;20257;-69
2021/03/13 06:38:16;;;;;;;5.30;1.80;;;;;;;;;;5079744;28;20298;-70
2021/03/13 06:40:43;;;;;;;3.07;1.73;;;;;;;;;;5080526;28;20210;-68
2021/03/13 06:43:34;;;;;;;3.23;1.60;;;;;;;;;;5079626;28;20206;-68
2021/03/13 06:46:03;;;;;;;2.20;1.60;;;;;;;;;;5076613;28;20225;-70
2021/03/13 06:48:36;;;;;;;2.87;1.60;;;;;;;;;;5097584;28;20243;-70
2021/03/13 06:51:16;;;;;;;2.27;1.87;;;;;;;;;;5098152;28;20265;-68
2021/03/13 06:53:43;;;;;;;3.53;1.70;;;;;;;;;;5089264;28;20699;-69
2021/03/13 06:56:11;;;;;;;4.53;1.80;;;;;;;;;;5088380;28;20228;-70
2021/03/13 06:58:38;;;;;;;3.83;1.80;;;;;;;;;;5085489;28;20268;-69
2021/03/13 07:01:05;;;;;;;1.93;1.73;;;;;;;;;;5083102;28;20252;-70
2021/03/13 07:03:33;;;;;;;1.90;1.63;;;;;;;;;;5083496;28;20201;-68
2021/03/13 07:06:15;;;;;;;4.70;2.13;;;;;;;;;;5089121;28;20313;-69
2021/03/13 07:08:43;;;;;;;4.37;2.60;;;;;;;;;;5095491;28;20232;-70
2021/03/13 07:11:14;;;;;;;3.07;1.87;;;;;;;;;;5088280;28;20281;-71
2021/03/13 07:13:42;;;;;;;5.00;2.27;;;;;;;;;;5079612;28;20620;-71
2021/03/13 07:16:29;;;;;;;4.77;2.13;;;;;;;;;;5079125;28;20279;-72
2021/03/13 07:18:58;;;;;;;3.60;1.90;;;;;;;;;;5079541;28;20696;-70
2021/03/13 07:21:26;;;;;;;4.13;2.17;;;;;;;;;;5080292;28;20676;-71
2021/03/13 07:23:54;;;;;;;4.30;1.97;;;;;;;;;;5080042;28;20289;-72
2021/03/13 07:26:24;;;;;;;4.33;2.37;;;;;;;;;;5079456;28;20647;-71
2021/03/13 07:28:56;;;;;;;3.60;1.90;;;;;;;;;;5079930;28;20238;-71
2021/03/13 07:31:25;;;;;;;4.77;2.53;;;;;;;;;;5078221;28;20280;-72
2021/03/13 07:33:55;;;;;;;3.30;1.40;;;;;;;;;;5079452;28;20217;-72
2021/03/13 07:36:22;;;;;;;3.47;1.67;;;;;;;;;;5084937;28;20267;-71
2021/03/13 07:38:51;;;;;;;2.87;2.00;;;;;;;;;;5080106;28;20257;-71
2021/03/13 07:41:19;;;;;;;4.83;2.00;;;;;;;;;;5079678;28;20210;-70
2021/03/13 07:43:46;;;;;;;3.17;1.40;;;;;;;;;;5079400;28;20209;-71
2021/03/13 07:46:13;;;;;;;2.93;1.77;;;;;;;;;;5087965;28;20876;-70
2021/03/13 07:48:41;;;;;;;6.17;1.57;;;;;;;;;;5083474;28;20623;-72
2021/03/13 07:51:09;;;;;;;4.13;1.53;;;;;;;;;;5079177;28;20233;-72
2021/03/13 07:53:37;;;;;;;1.60;1.33;;;;;;;;;;5097485;28;20292;-72
2021/03/13 07:56:06;;;;;;;1.70;1.10;;;;;;;;;;5098638;28;20225;-72
2021/03/13 07:58:33;;;;;;;1.73;1.20;;;;;;;;;;5099136;28;20233;-72
2021/03/13 08:01:00;;;;;;;4.50;1.40;;;;;;;;;;5080273;28;20629;-72
2021/03/13 08:03:48;;;;;;;1.73;1.33;;;;;;;;;;5081410;28;20561;-72
2021/03/13 08:06:16;;;;;;;3.40;1.20;;;;;;;;;;5082872;28;20217;-72
2021/03/13 08:08:44;;;;;;;1.80;1.50;;;;;;;;;;5096733;28;20251;-72
2021/03/13 08:11:12;;;;;;;2.67;1.40;;;;;;;;;;5096089;28;20210;-72
2021/03/13 08:13:49;;;;;;;1.63;1.27;;;;;;;;;;5098884;28;20620;-72
2021/03/13 08:16:19;;;;;;;2.20;1.40;;;;;;;;;;5099149;28;20221;-72
2021/03/13 08:18:47;;;;;;;1.37;1.27;;;;;;;;;;5099517;28;20248;-72
2021/03/13 08:21:33;;;;;;;2.63;1.70;;;;;;;;;;5086471;28;20201;-72
2021/03/13 08:24:00;;;;;;;6.80;1.53;;;;;;;;;;5080701;28;20202;-73
2021/03/13 08:29:42;;;;;;;5.50;1.07;;;;;;;;;;5137840;27;20604;-72
2021/03/13 08:32:09;;;;;;;1.67;1.20;;;;;;;;;;5135828;28;20212;-72
2021/03/13 08:34:40;;;;;;;1.27;1.07;;;;;;;;;;5135421;27;20247;-74
2021/03/13 08:37:25;;;;;;;3.97;1.20;;;;;;;;;;5121690;28;20236;-73
2021/03/13 08:39:52;;;;;;;3.63;1.10;;;;;;;;;;5126734;28;20344;-71
2021/03/13 08:42:29;;;;;;;4.03;1.40;;;;;;;;;;5125609;27;20212;-73
2021/03/13 08:45:17;;;;;;;1.80;1.20;;;;;;;;;;5126613;27;20718;-72
2021/03/13 08:47:45;;;;;;;2.90;1.20;;;;;;;;;;5122821;27;20252;-73
2021/03/13 08:50:12;;;;;;;4.13;1.33;;;;;;;;;;5135665;27;20602;-71
2021/03/13 08:52:39;;;;;;;2.40;1.20;;;;;;;;;;5121545;27;20284;-72
2021/03/13 08:55:06;;;;;;;3.10;1.30;;;;;;;;;;5115300;28;20267;-71
2021/03/13 08:57:47;;;;;;;3.97;1.33;;;;;;;;;;5114897;28;20649;-71
2021/03/13 09:00:16;;;;;;;2.10;1.50;;;;;;;;;;5127316;28;20596;-72
2021/03/13 09:02:47;;;;;;;3.60;1.50;;;;;;;;;;5135271;28;20235;-70
2021/03/13 09:05:15;;;;;;;3.23;1.50;;;;;;;;;;5134303;27;20262;-72
2021/03/13 09:07:45;;;;;;;3.20;1.43;;;;;;;;;;5115079;28;20794;-72
2021/03/13 09:10:12;;;;;;;2.87;1.60;;;;;;;;;;5117342;28;20279;-70
2021/03/13 09:12:41;;;;;;;1.20;1.00;;;;;;;;;;5132686;27;20269;-70
2021/03/13 09:15:09;;;;;;;3.07;1.60;;;;;;;;;;5131290;27;20255;-70
2021/03/13 09:17:37;;;;;;;2.33;1.27;;;;;;;;;;5130757;27;20192;-70
2021/03/13 09:20:08;;;;;;;2.20;1.30;;;;;;;;;;5132271;27;20209;-69
2021/03/13 09:22:37;;;;;;;3.60;1.27;;;;;;;;;;5134607;27;20717;-71
2021/03/13 09:25:05;;;;;;;4.33;1.60;;;;;;;;;;5117803;27;20243;-70
2021/03/13 09:27:36;;;;;;;2.70;1.27;;;;;;;;;;5133620;27;20806;-71
2021/03/13 09:30:05;;;;;;;0.90;0.90;;;;;;;;;;5134409;27;20287;-71
2021/03/13 09:32:32;;;;;;;3.77;1.50;;;;;;;;;;5134030;27;20782;-70
2021/03/13 09:34:59;;;;;;;1.67;1.20;;;;;;;;;;5130146;28;20648;-70
2021/03/13 09:37:28;;;;;;;2.37;0.97;;;;;;;;;;5126089;27;20243;-69
2021/03/13 09:39:59;;;;;;;3.07;1.20;;;;;;;;;;5116991;28;20228;-71
2021/03/13 09:42:26;;;;;;;1.00;0.80;;;;;;;;;;5114116;28;20251;-71
2021/03/13 09:44:54;;;;;;;2.20;0.80;;;;;;;;;;5109399;28;20221;-72
2021/03/13 09:47:24;;;;;;;1.57;1.00;;;;;;;;;;5112582;28;20205;-73
2021/03/13 09:49:52;;;;;;;2.23;1.20;;;;;;;;;;5111538;28;20287;-73
2021/03/13 09:52:23;;;;;;;2.50;1.00;;;;;;;;;;5112974;28;20225;-72
2021/03/13 09:54:58;;;;;;;0.80;0.70;;;;;;;;;;5111423;28;20213;-72
2021/03/13 09:57:25;;;;;;;2.50;0.73;;;;;;;;;;5110058;28;20196;-72
2021/03/13 09:59:52;;;;;;;4.97;1.00;;;;;;;;;;5111334;28;20266;-72
2021/03/13 10:02:21;;;;;;;8.50;1.40;;;;;;;;;;5112892;28;20207;-70
2021/03/13 10:04:48;;;;;;;2.63;0.90;;;;;;;;;;5116391;28;20218;-73
2021/03/13 10:07:27;;;;;;;2.30;1.23;;;;;;;;;;5120474;28;20265;-71
2021/03/13 10:09:56;;;;;;;5.77;1.07;;;;;;;;;;5118418;28;20225;-71
2021/03/13 10:12:24;;;;;;;4.20;1.40;;;;;;;;;;5116934;28;20246;-71
2021/03/13 10:14:51;;;;;;;3.80;1.33;;;;;;;;;;5110766;28;20287;-73
2021/03/13 10:17:19;;;;;;;2.73;1.50;;;;;;;;;;5100717;28;20209;-71
2021/03/13 10:19:47;;;;;;;1.47;0.87;;;;;;;;;;5116629;28;20259;-71
2021/03/13 10:22:15;;;;;;;2.60;1.20;;;;;;;;;;5119470;28;20766;-71
2021/03/13 10:24:46;;;;;;;1.63;1.20;;;;;;;;;;5119833;28;20638;-71
2021/03/13 10:27:21;;;;;;;2.60;0.93;;;;;;;;;;5117353;28;20230;-71
2021/03/13 10:29:52;;;;;;;3.07;0.93;;;;;;;;;;5120237;28;20208;-71
2021/03/13 10:32:24;;;;;;;1.80;1.00;;;;;;;;;;5112624;28;20209;-71
2021/03/13 10:35:08;;;;;;;3.47;1.00;;;;;;;;;;5104987;28;20250;-71
2021/03/13 10:37:47;;;;;;;2.30;1.20;;;;;;;;;;5099644;28;20208;-71
2021/03/13 10:40:33;;;;;;;2.53;0.83;;;;;;;;;;5106911;28;20201;-71
2021/03/13 10:43:14;;;;;;;4.10;1.20;;;;;;;;;;5117754;28;20276;-71
2021/03/13 10:45:41;;;;;;;3.70;1.07;;;;;;;;;;5119605;28;20254;-71
2021/03/13 10:48:11;;;;;;;2.60;1.30;;;;;;;;;;5107776;28;20763;-71
2021/03/13 10:50:40;;;;;;;4.73;1.30;;;;;;;;;;5111238;28;20213;-72
2021/03/13 10:53:25;;;;;;;1.37;0.80;;;;;;;;;;5099231;28;20201;-72
2021/03/13 10:55:53;;;;;;;1.60;1.03;;;;;;;;;;5115789;28;21120;-71
2021/03/13 10:58:23;;;;;;;2.30;1.10;;;;;;;;;;5118406;28;20240;-71
2021/03/13 11:00:50;;;;;;;3.03;1.10;;;;;;;;;;5118389;28;20260;-71
2021/03/13 11:03:17;;;;;;;3.23;1.40;;;;;;;;;;5108224;28;20675;-72
2021/03/13 11:05:47;;;;;;;2.57;1.10;;;;;;;;;;5118122;28;20555;-72
2021/03/13 11:08:15;;;;;;;3.57;1.20;;;;;;;;;;5118922;28;20691;-71
2021/03/13 11:10:42;;;;;;;7.50;4.33;;;;;;;;;;5115892;28;20729;-72
2021/03/13 11:13:10;;;;;;;2.10;1.33;;;;;;;;;;5115983;28;20666;-71
2021/03/13 11:15:38;;;;;;;1.93;1.10;;;;;;;;;;5111478;28;20255;-72
2021/03/13 11:18:05;;;;;;;4.07;1.20;;;;;;;;;;5109432;28;20787;-72
2021/03/13 11:20:33;;;;;;;1.13;1.00;;;;;;;;;;5109705;28;20568;-71
2021/03/13 11:23:00;;;;;;;3.63;1.10;;;;;;;;;;5117954;28;20201;-69
2021/03/13 11:25:27;;;;;;;4.73;1.10;;;;;;;;;;5117557;28;20307;-68
2021/03/13 11:27:55;;;;;;;1.27;1.03;;;;;;;;;;5107035;28;20759;-70
2021/03/13 11:30:22;;;;;;;4.27;1.20;;;;;;;;;;5117423;28;20258;-69
2021/03/13 11:32:50;;;;;;;2.53;1.13;;;;;;;;;;5117790;28;20281;-71
2021/03/13 11:35:20;;;;;;;2.63;1.20;;;;;;;;;;5118483;28;20229;-70
2021/03/13 11:37:47;;;;;;;1.97;1.07;;;;;;;;;;5102896;28;20196;-71
2021/03/13 11:40:14;;;;;;;3.50;1.13;;;;;;;;;;5115138;28;20247;-71
2021/03/13 11:42:42;;;;;;;1.83;1.43;;;;;;;;;;5108447;28;20235;-71
2021/03/13 11:45:10;;;;;;;2.63;1.10;;;;;;;;;;5111374;28;20256;-71
2021/03/13 11:47:37;;;;;;;5.47;1.23;;;;;;;;;;5107784;28;20206;-71
2021/03/13 11:50:07;;;;;;;7.87;0.93;;;;;;;;;;5109579;28;20196;-71
2021/03/13 11:52:35;;;;;;;2.70;1.53;;;;;;;;;;5111569;28;20232;-71
2021/03/13 11:55:02;;;;;;;1.40;0.80;;;;;;;;;;5113491;28;20269;-72
2021/03/13 11:57:30;;;;;;;1.17;1.00;;;;;;;;;;5114458;28;20201;-71
2021/03/13 11:59:57;;;;;;;2.90;1.60;;;;;;;;;;5111408;28;20245;-71
2021/03/13 12:02:24;;;;;;;2.40;0.90;;;;;;;;;;5114200;28;20197;-71
2021/03/13 12:04:51;;;;;;;0.80;0.80;;;;;;;;;;5112009;28;20220;-71
2021/03/13 12:07:19;;;;;;;3.53;1.50;;;;;;;;;;5112662;28;20197;-70
2021/03/13 12:09:47;;;;;;;1.10;0.63;;;;;;;;;;5113225;28;20252;-70
2021/03/13 12:12:14;;;;;;;2.33;1.10;;;;;;;;;;5108001;28;20293;-71
2021/03/13 12:14:41;;;;;;;1.40;0.70;;;;;;;;;;5108964;27;20230;-71
2021/03/13 12:17:11;;;;;;;2.63;1.30;;;;;;;;;;5097624;28;20245;-71
2021/03/13 12:19:39;;;;;;;1.53;0.90;;;;;;;;;;5114192;28;20201;-69
2021/03/13 12:22:09;;;;;;;2.23;1.10;;;;;;;;;;5108560;28;20235;-68
2021/03/13 12:24:37;;;;;;;1.37;0.60;;;;;;;;;;5110606;28;20216;-70
2021/03/13 12:27:05;;;;;;;1.57;1.00;;;;;;;;;;5112419;28;20251;-70
2021/03/13 12:29:32;;;;;;;4.13;1.20;;;;;;;;;;5115543;28;20216;-69
2021/03/13 12:31:59;;;;;;;1.63;0.70;;;;;;;;;;5111692;28;20283;-69
2021/03/13 12:34:26;;;;;;;2.80;0.93;;;;;;;;;;5115298;28;20299;-68
2021/03/13 12:36:54;;;;;;;1.70;0.97;;;;;;;;;;5110807;28;20222;-72
2021/03/13 12:39:21;;;;;;;1.10;0.83;;;;;;;;;;5115593;28;20224;-71
2021/03/13 12:41:49;;;;;;;0.80;0.80;;;;;;;;;;5115136;28;20201;-72
2021/03/13 12:44:16;;;;;;;1.27;0.97;;;;;;;;;;5111648;28;20242;-70
2021/03/13 12:46:43;;;;;;;1.33;1.10;;;;;;;;;;5111060;28;20207;-68
2021/03/13 12:49:10;;;;;;;6.20;2.70;;;;;;;;;;5107035;28;20229;-69
2021/03/13 12:51:37;;;;;;;1.67;1.03;;;;;;;;;;5111645;28;20269;-69
2021/03/13 12:54:05;;;;;;;2.27;1.03;;;;;;;;;;5109264;28;20197;-69
2021/03/13 12:56:32;;;;;;;1.60;0.80;;;;;;;;;;5106758;28;20474;-70
2021/03/13 12:59:00;;;;;;;2.57;1.23;;;;;;;;;;5110173;28;20276;-70
2021/03/13 13:01:27;;;;;;;1.40;0.77;;;;;;;;;;5109358;28;20249;-67
2021/03/13 13:04:01;;;;;;;0.67;0.63;;;;;;;;;;5102308;28;20252;-67
2021/03/13 13:06:29;;;;;;;4.80;1.37;;;;;;;;;;5109724;28;20596;-67
2021/03/13 13:08:56;;;;;;;2.73;1.77;;;;;;;;;;5108849;28;20285;-69
2021/03/13 13:11:24;;;;;;;2.20;1.00;;;;;;;;;;5110791;28;20232;-68
2021/03/13 13:13:52;;;;;;;1.47;1.00;;;;;;;;;;5110725;28;20246;-67
2021/03/13 13:16:20;;;;;;;1.30;0.70;;;;;;;;;;5111969;28;20241;-67
2021/03/13 13:18:47;;;;;;;0.93;0.93;;;;;;;;;;5115482;28;20604;-69
2021/03/13 13:21:14;;;;;;;2.23;1.13;;;;;;;;;;5114302;28;20687;-69
2021/03/13 13:23:41;;;;;;;1.03;0.87;;;;;;;;;;5102335;28;20205;-69
2021/03/13 13:26:08;;;;;;;1.43;1.00;;;;;;;;;;5114917;28;20746;-69
2021/03/13 13:28:36;;;;;;;1.67;0.73;;;;;;;;;;5103312;27;20237;-69
2021/03/13 13:31:04;;;;;;;3.27;1.00;;;;;;;;;;5110408;28;20228;-69
2021/03/13 13:33:33;;;;;;;0.90;0.70;;;;;;;;;;5103951;27;20209;-69
2021/03/13 13:36:00;;;;;;;2.40;0.70;;;;;;;;;;5114697;28;20269;-69
2021/03/13 13:38:27;;;;;;;2.23;0.97;;;;;;;;;;5121057;28;20213;-69
2021/03/13 13:40:55;;;;;;;1.40;0.70;;;;;;;;;;5118075;28;20231;-68
2021/03/13 13:43:22;;;;;;;1.43;1.07;;;;;;;;;;5116255;28;20237;-69
2021/03/13 13:45:49;;;;;;;0.80;0.80;;;;;;;;;;5106293;28;20221;-70
2021/03/13 13:48:16;;;;;;;1.63;0.70;;;;;;;;;;5118612;28;20230;-69
2021/03/13 13:50:44;;;;;;;1.23;0.60;;;;;;;;;;5120072;28;20344;-68
2021/03/13 13:53:11;;;;;;;2.33;1.90;;;;;;;;;;5120072;27;20648;-70
2021/03/13 13:55:41;;;;;;;0.90;0.77;;;;;;;;;;5118467;28;20706;-69
2021/03/13 13:58:08;;;;;;;1.33;0.80;;;;;;;;;;5118418;28;20249;-69
2021/03/13 14:00:35;;;;;;;0.87;0.70;;;;;;;;;;5113095;28;20228;-69
2021/03/13 14:03:02;;;;;;;4.97;0.80;;;;;;;;;;5110665;28;20204;-67
2021/03/13 14:05:30;;;;;;;1.23;0.70;;;;;;;;;;5119002;28;20216;-69
2021/03/13 14:07:57;;;;;;;1.07;0.90;;;;;;;;;;5120516;28;20291;-70
2021/03/13 14:10:29;;;;;;;1.47;1.00;;;;;;;;;;5119455;28;20205;-69
2021/03/13 14:12:56;;;;;;;1.33;0.67;;;;;;;;;;5119746;28;20200;-67
2021/03/13 14:15:23;;;;;;;2.33;0.80;;;;;;;;;;5114010;28;20233;-68
2021/03/13 14:17:50;;;;;;;1.80;0.70;;;;;;;;;;5111793;28;20285;-69
2021/03/13 14:20:18;;;;;;;3.47;1.00;;;;;;;;;;5119384;28;20269;-70
2021/03/13 14:22:45;;;;;;;0.60;0.60;;;;;;;;;;5107921;28;20231;-69
2021/03/13 14:25:14;;;;;;;0.53;0.53;;;;;;;;;;5112905;28;20225;-69
2021/03/13 14:27:41;;;;;;;2.67;0.80;;;;;;;;;;5099672;28;20267;-70
2021/03/13 14:30:10;;;;;;;1.87;0.50;;;;;;;;;;5114199;28;20236;-70
2021/03/13 14:32:37;;;;;;;2.00;0.60;;;;;;;;;;5120213;28;20204;-70
2021/03/13 14:35:06;;;;;;;1.70;0.50;;;;;;;;;;5116899;28;20253;-71
2021/03/13 14:37:33;;;;;;;0.50;0.50;;;;;;;;;;5111093;28;20284;-70
2021/03/13 14:40:00;;;;;;;1.10;0.70;;;;;;;;;;5107692;28;20725;-70
2021/03/13 14:42:28;;;;;;;0.67;0.47;;;;;;;;;;5108458;28;20197;-70
2021/03/13 14:44:55;;;;;;;0.70;0.40;;;;;;;;;;5111424;28;20285;-70
2021/03/13 14:47:23;;;;;;;0.60;0.47;;;;;;;;;;5108495;28;20217;-69
2021/03/13 14:49:50;;;;;;;1.63;0.60;;;;;;;;;;5111564;28;20256;-70
2021/03/13 14:52:17;;;;;;;0.67;0.47;;;;;;;;;;5111468;28;20205;-70
2021/03/13 14:54:45;;;;;;;1.00;0.63;;;;;;;;;;5108061;28;20250;-70